createdAt,value
2019-05-03T00:00:32.253Z,7.50
2019-05-03T00:01:32.431Z,9.40
2019-05-03T00:02:32.412Z,7.30
2019-05-03T00:03:33.155Z,7.70
2019-05-03T00:04:32.108Z,8.10
2019-05-03T00:05:32.578Z,8.80
2019-05-03T00:06:32.137Z,7.10
2019-05-03T00:07:32.034Z,10.40
2019-05-03T00:08:33.353Z,9.50
2019-05-03T00:09:32.035Z,7.60
2019-05-03T00:10:31.951Z,8.00
2019-05-03T00:11:32.675Z,7.60
2019-05-03T00:12:32.739Z,8.20
2019-05-03T00:13:32.554Z,6.90
2019-05-03T00:14:32.509Z,8.40
2019-05-03T00:15:32.335Z,8.30
2019-05-03T00:16:32.539Z,5.50
2019-05-03T00:17:38.445Z,7.90
2019-05-03T00:18:32.762Z,7.70
2019-05-03T00:19:32.777Z,9.20
2019-05-03T00:20:32.616Z,8.60
2019-05-03T00:21:32.703Z,7.80
2019-05-03T00:22:32.348Z,14.10
2019-05-03T00:23:32.460Z,9.30
2019-05-03T00:24:32.128Z,8.80
2019-05-03T00:25:32.625Z,6.80
2019-05-03T00:26:31.850Z,9.20
2019-05-03T00:27:32.287Z,11.10
2019-05-03T00:28:32.224Z,7.90
2019-05-03T00:29:32.559Z,8.20
2019-05-03T00:30:31.974Z,7.70
2019-05-03T00:31:33.341Z,8.30
2019-05-03T00:32:32.063Z,7.00
2019-05-03T00:33:32.292Z,9.10
2019-05-03T00:34:32.419Z,6.40
2019-05-03T00:35:31.951Z,7.80
2019-05-03T00:36:32.851Z,6.40
2019-05-03T00:37:32.754Z,9.10
2019-05-03T00:38:32.505Z,8.50
2019-05-03T00:39:32.496Z,9.40
2019-05-03T00:40:32.358Z,8.20
2019-05-03T00:41:32.027Z,8.10
2019-05-03T00:42:31.788Z,8.60
2019-05-03T00:43:37.993Z,9.20
2019-05-03T00:44:31.703Z,9.10
2019-05-03T00:45:31.613Z,7.10
2019-05-03T00:46:32.624Z,11.80
2019-05-03T00:47:32.715Z,6.90
2019-05-03T00:48:32.558Z,8.80
2019-05-03T00:49:32.119Z,10.10
2019-05-03T00:50:32.051Z,10.50
2019-05-03T00:51:31.831Z,9.00
2019-05-03T00:52:31.804Z,10.60
2019-05-03T00:53:31.783Z,8.90
2019-05-03T00:54:31.665Z,6.80
2019-05-03T00:55:32.620Z,9.90
2019-05-03T00:56:32.158Z,11.00
2019-05-03T00:57:32.262Z,9.60
2019-05-03T00:58:31.816Z,9.90
2019-05-03T00:59:32.490Z,11.10
2019-05-03T01:00:32.187Z,10.10
2019-05-03T01:01:32.456Z,9.50
2019-05-03T01:02:31.857Z,9.00
2019-05-03T01:03:32.407Z,11.10
2019-05-03T01:04:31.773Z,10.60
2019-05-03T01:05:30.335Z,9.00
2019-05-03T01:06:31.853Z,10.10
2019-05-03T01:07:31.873Z,8.40
2019-05-03T01:08:30.227Z,13.40
2019-05-03T01:09:31.710Z,13.10
2019-05-03T01:10:30.179Z,8.30
2019-05-03T01:11:32.407Z,9.20
2019-05-03T01:12:32.188Z,9.60
2019-05-03T01:13:32.082Z,10.70
2019-05-03T01:14:31.687Z,8.30
2019-05-03T01:15:31.936Z,11.70
2019-05-03T01:16:31.517Z,12.10
2019-05-03T01:17:31.694Z,9.50
2019-05-03T01:18:29.936Z,10.30
2019-05-03T01:19:32.044Z,10.00
2019-05-03T01:20:31.876Z,10.50
2019-05-03T01:21:31.637Z,10.10
2019-05-03T01:22:31.982Z,11.10
2019-05-03T01:23:29.849Z,10.00
2019-05-03T01:24:29.777Z,11.70
2019-05-03T01:25:34.622Z,8.90
2019-05-03T01:26:31.822Z,9.70
2019-05-03T01:27:29.689Z,8.80
2019-05-03T01:28:29.657Z,10.70
2019-05-03T01:29:29.650Z,10.10
2019-05-03T01:30:29.612Z,12.20
2019-05-03T01:31:29.663Z,9.20
2019-05-03T01:32:29.557Z,10.30
2019-05-03T01:33:32.138Z,9.80
2019-05-03T01:34:29.510Z,14.00
2019-05-03T01:35:29.500Z,10.30
2019-05-03T01:36:29.451Z,12.10
2019-05-03T01:37:35.991Z,9.00
2019-05-03T01:38:29.389Z,9.00
2019-05-03T01:39:29.352Z,12.50
2019-05-03T01:40:29.340Z,9.50
2019-05-03T01:41:35.991Z,7.90
2019-05-03T01:42:29.268Z,10.20
2019-05-03T01:43:31.767Z,9.20
2019-05-03T01:44:29.197Z,8.10
2019-05-03T01:45:29.172Z,17.00
2019-05-03T01:46:29.148Z,8.40
2019-05-03T01:47:29.115Z,8.80
2019-05-03T01:48:29.088Z,14.30
2019-05-03T01:49:32.080Z,10.10
2019-05-03T01:50:29.029Z,12.70
2019-05-03T01:51:30.008Z,10.60
2019-05-03T01:52:28.960Z,10.00
2019-05-03T01:53:28.935Z,10.50
2019-05-03T01:54:28.938Z,10.00
2019-05-03T01:55:28.879Z,7.10
2019-05-03T01:56:28.858Z,12.20
2019-05-03T01:57:28.826Z,11.90
2019-05-03T01:58:28.793Z,8.00
2019-05-03T01:59:28.760Z,10.50
2019-05-03T02:00:28.741Z,9.70
2019-05-03T02:01:28.694Z,13.70
2019-05-03T02:02:28.664Z,10.50
2019-05-03T02:03:28.665Z,9.40
2019-05-03T02:04:28.622Z,9.50
2019-05-03T02:05:28.596Z,9.80
2019-05-03T02:06:28.561Z,9.60
2019-05-03T02:07:28.534Z,10.40
2019-05-03T02:08:28.487Z,9.70
2019-05-03T02:09:35.018Z,9.50
2019-05-03T02:10:28.439Z,6.40
2019-05-03T02:11:28.417Z,12.60
2019-05-03T02:12:28.399Z,10.20
2019-05-03T02:13:29.360Z,8.50
2019-05-03T02:14:28.313Z,11.50
2019-05-03T02:15:28.291Z,12.30
2019-05-03T02:16:28.249Z,18.30
2019-05-03T02:17:28.270Z,13.50
2019-05-03T02:18:28.194Z,11.00
2019-05-03T02:19:29.192Z,13.20
2019-05-03T02:20:28.234Z,13.40
2019-05-03T02:21:28.137Z,13.00
2019-05-03T02:22:28.079Z,13.60
2019-05-03T02:23:28.060Z,13.60
2019-05-03T02:24:28.048Z,11.40
2019-05-03T02:25:28.129Z,11.70
2019-05-03T02:26:27.970Z,10.40
2019-05-03T02:27:29.984Z,12.10
2019-05-03T02:28:27.912Z,12.50
2019-05-03T02:29:28.868Z,12.50
2019-05-03T02:30:27.854Z,11.90
2019-05-03T02:31:27.855Z,14.60
2019-05-03T02:32:27.809Z,10.60
2019-05-03T02:33:27.775Z,15.00
2019-05-03T02:34:27.730Z,12.00
2019-05-03T02:35:27.694Z,12.50
2019-05-03T02:36:27.674Z,13.20
2019-05-03T02:37:27.654Z,10.60
2019-05-03T02:38:43.097Z,10.40
2019-05-03T02:39:27.631Z,13.40
2019-05-03T02:40:28.555Z,10.70
2019-05-03T02:41:27.523Z,11.40
2019-05-03T03:08:26.275Z,10.10
2019-05-03T03:09:19.575Z,11.30
2019-05-03T03:10:18.540Z,12.80
2019-05-03T03:11:45.637Z,12.60
2019-05-03T03:12:18.484Z,11.40
2019-05-03T03:13:20.464Z,12.10
2019-05-03T03:14:18.422Z,10.30
2019-05-03T03:15:26.308Z,15.10
2019-05-03T03:16:20.707Z,14.50
2019-05-03T03:17:20.336Z,11.60
2019-05-03T03:18:18.303Z,13.00
2019-05-03T03:19:20.299Z,11.30
2019-05-03T03:20:18.241Z,11.60
2019-05-03T03:21:26.101Z,10.60
2019-05-03T03:22:18.186Z,12.10
2019-05-03T03:29:40.544Z,10.10
2019-05-03T03:30:08.787Z,9.40
2019-05-03T03:31:08.859Z,13.30
2019-05-03T03:32:09.942Z,9.60
2019-05-03T03:33:09.435Z,8.70
2019-05-03T03:34:08.852Z,11.00
2019-05-03T03:35:11.609Z,11.70
2019-05-03T03:36:37.962Z,11.70
2019-05-03T03:37:10.301Z,10.80
2019-05-03T03:38:10.555Z,12.10
2019-05-03T03:39:08.528Z,9.20
2019-05-03T03:40:17.052Z,7.60
2019-05-03T03:41:08.462Z,11.80
2019-05-03T03:42:38.039Z,13.10
2019-05-03T03:43:08.497Z,8.80
2019-05-03T03:44:15.400Z,9.90
2019-05-03T03:45:08.365Z,12.40
2019-05-03T03:46:08.329Z,10.80
2019-05-03T03:47:08.273Z,9.70
2019-05-03T03:48:16.040Z,8.80
2019-05-03T03:49:08.215Z,10.40
2019-05-03T03:50:35.620Z,13.50
2019-05-03T03:51:08.156Z,10.50
2019-05-03T03:52:37.048Z,10.30
2019-05-03T03:53:08.110Z,10.60
2019-05-03T03:54:08.080Z,11.20
2019-05-03T03:55:26.395Z,11.20
2019-05-03T03:56:08.005Z,11.10
2019-05-03T03:57:08.403Z,9.00
2019-05-03T03:58:07.978Z,9.40
2019-05-03T03:59:07.943Z,8.00
2019-05-03T04:00:07.928Z,11.50
2019-05-03T04:01:07.883Z,10.50
2019-05-03T04:02:07.877Z,9.90
2019-05-03T04:03:07.804Z,10.80
2019-05-03T04:04:07.785Z,12.60
2019-05-03T04:05:07.743Z,9.30
2019-05-03T04:06:07.730Z,9.20
2019-05-03T04:07:07.707Z,9.20
2019-05-03T04:08:09.716Z,11.10
2019-05-03T04:09:07.631Z,10.40
2019-05-03T04:10:07.601Z,12.70
2019-05-03T04:11:07.603Z,11.50
2019-05-03T04:12:07.551Z,10.00
2019-05-03T04:13:07.514Z,10.60
2019-05-03T04:14:07.485Z,6.70
2019-05-03T04:15:07.469Z,8.70
2019-05-03T04:16:07.444Z,10.90
2019-05-03T04:17:08.405Z,12.60
2019-05-03T04:18:07.364Z,10.00
2019-05-03T04:19:07.374Z,9.90
2019-05-03T04:20:07.312Z,7.90
2019-05-03T04:21:08.289Z,9.30
2019-05-03T04:22:07.251Z,11.40
2019-05-03T04:23:07.246Z,7.40
2019-05-03T04:24:07.199Z,9.70
2019-05-03T04:25:08.161Z,9.60
2019-05-03T04:26:07.217Z,7.20
2019-05-03T04:27:18.704Z,8.10
2019-05-03T04:28:07.065Z,7.50
2019-05-03T04:29:07.042Z,6.70
2019-05-03T04:30:07.053Z,8.20
2019-05-03T04:31:06.982Z,11.10
2019-05-03T04:32:06.955Z,8.40
2019-05-03T04:33:06.933Z,9.30
2019-05-03T04:34:06.899Z,14.70
2019-05-03T04:35:06.906Z,10.20
2019-05-03T04:36:06.848Z,7.40
2019-05-03T04:37:16.069Z,9.50
2019-05-03T04:38:06.819Z,7.70
2019-05-03T04:39:06.773Z,9.50
2019-05-03T04:40:06.747Z,9.90
2019-05-03T04:41:07.722Z,7.60
2019-05-03T04:42:07.105Z,11.20
2019-05-03T04:43:06.654Z,6.40
2019-05-03T04:44:06.684Z,8.20
2019-05-03T04:45:06.596Z,9.70
2019-05-03T04:46:06.928Z,7.50
2019-05-03T04:47:07.197Z,10.80
2019-05-03T04:48:06.508Z,7.60
2019-05-03T04:49:07.512Z,6.80
2019-05-03T04:50:06.428Z,11.20
2019-05-03T04:51:06.429Z,8.70
2019-05-03T04:52:06.389Z,8.00
2019-05-03T04:53:06.343Z,6.40
2019-05-03T04:54:06.307Z,8.30
2019-05-03T04:55:07.294Z,7.70
2019-05-03T04:56:06.283Z,7.20
2019-05-03T04:57:06.716Z,8.10
2019-05-03T04:58:06.189Z,8.70
2019-05-03T04:59:06.163Z,8.60
2019-05-03T05:00:10.595Z,7.20
2019-05-03T05:01:06.420Z,8.40
2019-05-03T05:02:06.326Z,7.70
2019-05-03T05:03:06.267Z,9.70
2019-05-03T05:04:05.988Z,6.90
2019-05-03T05:05:06.223Z,6.60
2019-05-03T05:06:06.511Z,8.00
2019-05-03T05:07:06.346Z,8.40
2019-05-03T05:08:06.190Z,6.10
2019-05-03T05:09:05.891Z,10.00
2019-05-03T05:10:05.874Z,11.50
2019-05-03T05:11:09.954Z,6.90
2019-05-03T05:12:06.006Z,8.40
2019-05-03T05:13:05.798Z,7.10
2019-05-03T05:14:06.362Z,8.60
2019-05-03T05:15:05.689Z,7.70
2019-05-03T05:16:06.123Z,7.50
2019-05-03T05:17:06.314Z,6.40
2019-05-03T05:18:06.049Z,5.80
2019-05-03T05:19:05.885Z,9.30
2019-05-03T05:20:05.524Z,5.60
2019-05-03T05:21:05.533Z,9.70
2019-05-03T05:22:05.973Z,9.30
2019-05-03T05:23:05.443Z,8.20
2019-05-03T05:24:05.752Z,5.30
2019-05-03T05:25:06.378Z,8.70
2019-05-03T05:26:05.600Z,9.10
2019-05-03T05:27:05.406Z,7.50
2019-05-03T05:28:05.271Z,4.90
2019-05-03T05:29:05.359Z,9.00
2019-05-03T05:30:05.215Z,7.50
2019-05-03T05:31:05.214Z,9.10
2019-05-03T05:32:05.351Z,10.10
2019-05-03T05:33:05.422Z,5.90
2019-05-03T05:34:06.286Z,7.90
2019-05-03T05:35:05.227Z,5.90
2019-05-03T05:36:05.052Z,9.00
2019-05-03T05:37:05.373Z,5.10
2019-05-03T05:38:04.985Z,5.60
2019-05-03T05:39:05.261Z,7.70
2019-05-03T05:40:05.308Z,7.40
2019-05-03T05:41:05.374Z,7.60
2019-05-03T05:42:04.851Z,10.10
2019-05-03T05:43:05.101Z,5.80
2019-05-03T05:44:05.424Z,8.90
2019-05-03T05:45:12.713Z,9.90
2019-05-03T05:46:05.366Z,10.60
2019-05-03T05:47:04.806Z,8.30
2019-05-03T05:48:05.151Z,11.20
2019-05-03T05:49:04.729Z,6.00
2019-05-03T05:50:05.023Z,9.70
2019-05-03T05:51:04.665Z,6.00
2019-05-03T05:52:05.003Z,6.20
2019-05-03T05:53:05.045Z,6.40
2019-05-03T05:54:05.224Z,5.90
2019-05-03T05:55:06.560Z,6.70
2019-05-03T05:56:05.043Z,6.70
2019-05-03T05:57:19.144Z,6.10
2019-05-03T05:58:07.523Z,4.80
2019-05-03T05:59:05.435Z,8.80
2019-05-03T06:00:04.948Z,8.30
2019-05-03T06:01:05.506Z,7.00
2019-05-03T06:02:04.855Z,7.40
2019-05-03T06:03:05.132Z,11.60
2019-05-03T06:04:05.375Z,6.30
2019-05-03T06:05:04.837Z,7.40
2019-05-03T06:06:05.342Z,7.40
2019-05-03T06:07:04.596Z,8.20
2019-05-03T06:08:04.812Z,9.60
2019-05-03T06:09:05.126Z,8.90
2019-05-03T06:10:05.260Z,5.30
2019-05-03T06:11:04.542Z,7.60
2019-05-03T06:12:04.534Z,7.90
2019-05-03T06:13:05.058Z,7.20
2019-05-03T06:14:05.017Z,7.60
2019-05-03T06:15:04.924Z,6.80
2019-05-03T06:16:05.149Z,6.40
2019-05-03T06:17:05.466Z,8.90
2019-05-03T06:18:05.661Z,7.30
2019-05-03T06:19:10.655Z,8.00
2019-05-03T06:20:05.312Z,5.60
2019-05-03T06:21:05.840Z,5.20
2019-05-03T06:22:05.123Z,7.10
2019-05-03T06:23:05.281Z,9.60
2019-05-03T06:24:04.455Z,6.00
2019-05-03T06:25:06.433Z,8.80
2019-05-03T06:26:04.976Z,8.70
2019-05-03T06:27:05.622Z,10.60
2019-05-03T06:28:16.931Z,7.70
2019-05-03T06:29:11.185Z,9.80
2019-05-03T06:30:04.708Z,8.50
2019-05-03T06:31:04.848Z,10.80
2019-05-03T06:32:05.285Z,11.00
2019-05-03T06:33:05.338Z,6.10
2019-05-03T06:34:04.541Z,6.30
2019-05-03T06:35:04.942Z,6.40
2019-05-03T06:36:04.950Z,7.50
2019-05-03T06:37:10.184Z,6.80
2019-05-03T06:38:04.927Z,4.80
2019-05-03T06:39:08.132Z,7.20
2019-05-03T06:40:06.028Z,4.10
2019-05-03T06:41:04.696Z,9.60
2019-05-03T06:42:05.079Z,8.90
2019-05-03T06:43:11.168Z,5.60
2019-05-03T06:44:04.331Z,7.00
2019-05-03T06:45:08.274Z,8.20
2019-05-03T06:46:05.140Z,8.10
2019-05-03T06:47:08.794Z,9.70
2019-05-03T06:48:02.901Z,6.80
2019-05-03T06:49:06.581Z,9.60
2019-05-03T06:50:02.868Z,6.10
2019-05-03T06:51:09.268Z,7.20
2019-05-03T06:52:02.822Z,7.10
2019-05-03T06:53:13.022Z,5.20
2019-05-03T06:54:04.952Z,11.70
2019-05-03T06:55:06.403Z,8.90
2019-05-03T06:56:04.029Z,5.00
2019-05-03T06:57:05.747Z,7.00
2019-05-03T06:58:02.650Z,7.80
2019-05-03T06:59:02.617Z,11.70
2019-05-03T07:00:02.547Z,8.80
2019-05-03T07:01:04.532Z,6.60
2019-05-03T07:02:05.492Z,3.80
2019-05-03T07:03:02.442Z,7.20
2019-05-03T07:04:05.117Z,4.80
2019-05-03T07:05:02.352Z,6.20
2019-05-03T07:06:04.441Z,4.60
2019-05-03T07:07:05.113Z,5.50
2019-05-03T07:08:02.277Z,6.10
2019-05-03T07:09:02.220Z,5.10
2019-05-03T07:10:05.053Z,5.60
2019-05-03T07:11:02.212Z,7.50
2019-05-03T07:12:04.378Z,5.70
2019-05-03T07:13:02.144Z,5.50
2019-05-03T07:14:05.124Z,5.20
2019-05-03T07:15:02.101Z,4.60
2019-05-03T07:16:04.671Z,8.20
2019-05-03T07:17:01.991Z,6.50
2019-05-03T07:18:02.057Z,6.20
2019-05-03T07:19:01.986Z,5.60
2019-05-03T07:20:09.645Z,5.40
2019-05-03T07:21:01.864Z,8.60
2019-05-03T07:22:01.876Z,5.80
2019-05-03T07:23:01.801Z,10.00
2019-05-03T07:24:01.906Z,8.10
2019-05-03T07:25:01.758Z,8.60
2019-05-03T07:26:02.824Z,4.10
2019-05-03T07:27:01.699Z,8.80
2019-05-03T07:28:04.434Z,6.40
2019-05-03T07:29:01.645Z,6.20
2019-05-03T07:30:01.641Z,6.90
2019-05-03T07:31:01.578Z,6.90
2019-05-03T07:32:01.661Z,6.00
2019-05-03T07:33:01.514Z,5.20
2019-05-03T07:34:01.591Z,6.20
2019-05-03T07:35:01.449Z,6.40
2019-05-03T07:36:05.347Z,6.00
2019-05-03T07:37:01.383Z,5.80
2019-05-03T07:38:01.375Z,9.60
2019-05-03T07:39:01.310Z,6.80
2019-05-03T07:40:01.406Z,9.20
2019-05-03T07:41:01.390Z,19.60
2019-05-03T07:42:01.317Z,9.00
2019-05-03T07:43:01.196Z,6.30
2019-05-03T07:44:01.209Z,7.00
2019-05-03T07:45:01.140Z,4.00
2019-05-03T07:46:01.154Z,7.60
2019-05-03T07:47:01.073Z,9.70
2019-05-03T07:48:01.043Z,8.50
2019-05-03T07:49:02.164Z,7.80
2019-05-03T07:50:00.991Z,4.60
2019-05-03T07:51:01.034Z,7.40
2019-05-03T07:52:00.923Z,6.00
2019-05-03T07:53:00.886Z,3.60
2019-05-03T07:54:00.864Z,6.30
2019-05-03T07:55:01.014Z,6.00
2019-05-03T07:56:00.814Z,9.60
2019-05-03T07:57:00.821Z,6.10
2019-05-03T07:58:00.733Z,4.80
2019-05-03T07:59:09.706Z,8.80
2019-05-03T08:00:00.687Z,6.20
2019-05-03T08:01:06.436Z,11.00
2019-05-03T08:02:00.621Z,7.10
2019-05-03T08:03:00.646Z,3.60
2019-05-03T08:04:00.559Z,9.40
2019-05-03T08:05:02.622Z,3.50
2019-05-03T08:06:00.494Z,5.20
2019-05-03T08:07:01.588Z,6.20
2019-05-03T08:08:00.420Z,5.80
2019-05-03T08:09:00.416Z,5.90
2019-05-03T08:10:00.373Z,3.60
2019-05-03T08:11:00.343Z,6.60
2019-05-03T08:12:00.439Z,6.00
2019-05-03T08:13:00.324Z,5.60
2019-05-03T08:14:00.273Z,6.70
2019-05-03T08:15:00.422Z,6.40
2019-05-03T08:16:00.202Z,6.90
2019-05-03T08:17:01.362Z,4.00
2019-05-03T08:18:00.149Z,4.30
2019-05-03T08:19:00.238Z,4.60
2019-05-03T08:20:00.133Z,3.80
2019-05-03T08:21:00.077Z,5.40
2019-05-03T08:22:00.043Z,5.70
2019-05-03T08:23:00.154Z,5.60
2019-05-03T08:23:59.955Z,3.40
2019-05-03T08:25:00.063Z,11.20
2019-05-03T08:25:59.926Z,15.00
2019-05-03T08:27:02.125Z,5.50
2019-05-03T08:27:59.832Z,3.40
2019-05-03T08:29:12.666Z,9.70
2019-05-03T08:29:59.818Z,5.50
2019-05-03T08:31:01.863Z,5.10
2019-05-03T08:31:59.710Z,3.60
2019-05-03T08:33:00.847Z,6.10
2019-05-03T08:33:59.651Z,6.60
2019-05-03T08:35:00.669Z,4.60
2019-05-03T08:35:59.596Z,4.30
2019-05-03T08:36:59.755Z,4.70
2019-05-03T08:37:59.522Z,7.30
2019-05-03T08:38:59.644Z,6.50
2019-05-03T08:39:59.472Z,6.00
2019-05-03T08:41:14.560Z,5.40
2019-05-03T08:41:59.437Z,4.80
2019-05-03T08:43:00.517Z,5.50
2019-05-03T08:43:59.345Z,5.00
2019-05-03T08:44:59.493Z,4.60
2019-05-03T08:45:59.312Z,4.90
2019-05-03T08:47:01.463Z,6.80
2019-05-03T08:47:59.245Z,6.50
2019-05-03T08:49:07.314Z,4.10
2019-05-03T08:49:59.157Z,5.00
2019-05-03T08:51:01.310Z,6.60
2019-05-03T08:51:59.137Z,7.40
2019-05-03T08:52:59.286Z,4.00
2019-05-03T08:53:59.051Z,6.60
2019-05-03T08:54:59.429Z,5.90
2019-05-03T08:55:59.002Z,6.20
2019-05-03T08:57:00.044Z,2.50
2019-05-03T08:57:58.951Z,4.10
2019-05-03T08:58:59.106Z,6.80
2019-05-03T08:59:58.894Z,6.00
2019-05-03T09:00:58.841Z,5.70
2019-05-03T09:02:02.813Z,4.50
2019-05-03T09:02:58.794Z,4.00
2019-05-03T09:03:58.878Z,3.30
2019-05-03T09:04:58.716Z,3.20
2019-05-03T09:05:58.767Z,6.20
2019-05-03T09:06:58.663Z,5.80
2019-05-03T09:07:58.813Z,4.60
2019-05-03T09:08:58.588Z,7.00
2019-05-03T09:09:58.670Z,4.70
2019-05-03T09:10:58.546Z,3.40
2019-05-03T09:11:58.527Z,3.20
2019-05-03T09:12:58.483Z,3.00
2019-05-03T09:13:58.492Z,5.80
2019-05-03T09:14:58.420Z,5.90
2019-05-03T09:16:00.632Z,4.70
2019-05-03T09:16:58.351Z,3.40
2019-05-03T09:17:58.445Z,4.90
2019-05-03T09:18:58.346Z,3.90
2019-05-03T09:19:58.536Z,6.30
2019-05-03T09:20:58.235Z,5.10
2019-05-03T09:21:58.359Z,6.90
2019-05-03T09:22:58.194Z,5.20
2019-05-03T09:23:58.297Z,3.40
2019-05-03T09:24:58.177Z,2.80
2019-05-03T09:25:58.308Z,5.60
2019-05-03T09:26:58.128Z,5.40
2019-05-03T09:27:58.096Z,6.40
2019-05-03T09:28:57.990Z,3.60
2019-05-03T09:29:58.080Z,2.90
2019-05-03T09:30:57.949Z,5.20
2019-05-03T09:31:58.002Z,4.40
2019-05-03T09:32:57.866Z,3.20
2019-05-03T09:33:57.919Z,5.30
2019-05-03T09:34:57.841Z,4.50
2019-05-03T09:35:57.950Z,3.80
2019-05-03T09:36:57.753Z,2.50
2019-05-03T09:37:57.839Z,3.80
2019-05-03T09:38:57.705Z,4.00
2019-05-03T09:39:57.764Z,5.40
2019-05-03T09:40:57.646Z,3.20
2019-05-03T09:41:57.719Z,3.30
2019-05-03T09:42:57.587Z,5.50
2019-05-03T09:44:35.065Z,4.10
2019-05-03T09:44:57.515Z,5.10
2019-05-03T09:45:57.510Z,5.70
2019-05-03T09:58:00.190Z,5.50
2019-05-03T09:59:15.267Z,3.10
2019-05-03T10:00:00.085Z,11.00
2019-05-03T10:01:00.392Z,2.70
2019-05-03T10:01:58.082Z,4.20
2019-05-03T10:03:00.427Z,4.00
2019-05-03T10:03:58.027Z,4.50
2019-05-03T10:05:12.776Z,3.80
2019-05-03T10:05:57.964Z,5.40
2019-05-03T10:06:59.014Z,4.20
2019-05-03T10:07:57.932Z,3.40
2019-05-03T10:08:58.020Z,7.30
2019-05-03T10:09:57.877Z,4.50
2019-05-03T10:10:58.023Z,3.20
2019-05-03T10:11:57.846Z,6.80
2019-05-03T10:13:57.743Z,4.70
2019-05-03T10:14:59.800Z,5.00
2019-05-03T10:15:57.692Z,4.90
2019-05-03T10:16:57.795Z,2.30
2019-05-03T10:17:57.618Z,8.10
2019-05-03T10:18:57.828Z,5.00
2019-05-03T10:19:57.606Z,4.40
2019-05-03T10:20:57.537Z,6.10
2019-05-03T10:21:57.523Z,4.90
2019-05-03T10:22:57.479Z,2.60
2019-05-03T10:23:57.458Z,2.80
2019-05-03T10:24:57.411Z,3.30
2019-05-03T10:25:57.396Z,3.60
2019-05-03T10:26:57.519Z,3.50
2019-05-03T10:27:57.330Z,3.00
2019-05-03T10:28:57.288Z,4.90
2019-05-03T10:30:09.666Z,3.00
2019-05-03T10:30:57.266Z,2.90
2019-05-03T10:31:57.336Z,5.20
2019-05-03T10:32:57.168Z,3.50
2019-05-03T10:33:58.461Z,3.60
2019-05-03T10:34:57.129Z,4.00
2019-05-03T10:35:57.213Z,3.90
2019-05-03T10:36:57.068Z,2.40
2019-05-03T10:37:57.052Z,3.70
2019-05-03T10:38:57.151Z,3.20
2019-05-03T10:39:56.975Z,3.50
2019-05-03T10:40:57.121Z,2.30
2019-05-03T10:41:56.931Z,3.10
2019-05-03T10:42:56.886Z,3.40
2019-05-03T10:43:56.890Z,4.40
2019-05-03T10:44:56.987Z,3.30
2019-05-03T10:45:56.771Z,2.70
2019-05-03T10:46:56.752Z,2.20
2019-05-03T10:47:56.753Z,4.40
2019-05-03T10:48:56.749Z,4.70
2019-05-03T10:49:56.696Z,4.60
2019-05-03T10:50:56.672Z,4.10
2019-05-03T10:51:56.598Z,2.20
2019-05-03T10:52:56.587Z,3.30
2019-05-03T10:53:56.577Z,4.70
2019-05-03T10:54:56.526Z,3.50
2019-05-03T10:55:56.490Z,4.50
2019-05-03T10:56:56.506Z,4.30
2019-05-03T10:57:56.439Z,6.20
2019-05-03T10:58:56.406Z,2.10
2019-05-03T10:59:56.599Z,2.70
2019-05-03T11:00:56.798Z,5.70
2019-05-03T11:01:58.363Z,3.60
2019-05-03T11:02:56.265Z,4.70
2019-05-03T11:04:05.334Z,3.50
2019-05-03T11:04:56.252Z,4.00
2019-05-03T11:05:57.279Z,3.90
2019-05-03T11:06:56.167Z,4.20
2019-05-03T11:07:58.228Z,5.10
2019-05-03T11:08:56.125Z,4.90
2019-05-03T11:09:58.112Z,3.40
2019-05-03T11:10:56.043Z,3.80
2019-05-03T11:11:57.137Z,5.30
2019-05-03T11:12:55.966Z,3.80
2019-05-03T11:13:57.015Z,3.70
2019-05-03T11:14:55.927Z,4.20
2019-05-03T11:15:56.116Z,3.30
2019-05-03T11:16:55.878Z,3.80
2019-05-03T11:17:56.928Z,3.40
2019-05-03T11:18:55.791Z,3.70
2019-05-03T11:19:55.961Z,5.30
2019-05-03T11:20:55.743Z,7.00
2019-05-03T11:21:56.737Z,4.70
2019-05-03T11:22:55.673Z,4.60
2019-05-03T11:23:56.755Z,5.70
2019-05-03T11:24:55.628Z,7.10
2019-05-03T11:25:56.661Z,4.60
2019-05-03T11:26:55.934Z,3.00
2019-05-03T11:28:02.309Z,4.30
2019-05-03T11:29:00.375Z,5.30
2019-05-03T11:29:55.681Z,4.00
2019-05-03T11:31:01.812Z,1.70
2019-05-03T11:31:55.484Z,4.40
2019-05-03T11:32:55.731Z,4.10
2019-05-03T11:34:03.227Z,3.70
2019-05-03T11:34:55.497Z,3.40
2019-05-03T11:35:56.318Z,4.40
2019-05-03T11:36:55.270Z,6.10
2019-05-03T11:37:55.298Z,7.30
2019-05-03T11:38:55.848Z,4.10
2019-05-03T11:39:55.816Z,5.30
2019-05-03T11:40:56.003Z,4.10
2019-05-03T11:42:04.657Z,4.00
2019-05-03T11:42:55.387Z,3.50
2019-05-03T11:43:56.161Z,3.30
2019-05-03T11:44:55.097Z,3.00
2019-05-03T11:45:55.543Z,2.90
2019-05-03T11:46:55.163Z,6.00
2019-05-03T11:47:55.133Z,5.20
2019-05-03T11:48:54.991Z,4.30
2019-05-03T11:49:54.880Z,2.70
2019-05-03T11:50:54.898Z,1.80
2019-05-03T11:51:55.612Z,4.70
2019-05-03T11:52:55.425Z,2.40
2019-05-03T11:53:54.805Z,2.90
2019-05-03T11:54:56.854Z,4.50
2019-05-03T11:55:55.146Z,2.10
2019-05-03T11:56:55.618Z,4.50
2019-05-03T11:57:56.624Z,6.20
2019-05-03T11:58:55.054Z,5.40
2019-05-03T11:59:54.870Z,3.90
2019-05-03T12:01:10.833Z,5.80
2019-05-03T12:01:55.319Z,1.90
2019-05-03T12:07:38.542Z,3.70
2019-05-03T12:08:25.353Z,4.40
2019-05-03T12:09:31.833Z,3.30
2019-05-03T12:10:36.080Z,4.50
2019-05-03T12:11:24.999Z,2.70
2019-05-03T12:12:24.953Z,6.30
2019-05-03T12:13:25.001Z,2.10
2019-05-03T12:14:24.894Z,4.40
2019-05-03T12:15:24.910Z,6.20
2019-05-03T12:16:59.885Z,4.70
2019-05-03T12:17:29.199Z,3.70
2019-05-03T12:18:25.466Z,2.80
2019-05-03T12:19:30.161Z,3.00
2019-05-03T12:20:28.172Z,5.70
2019-05-03T12:21:27.396Z,3.20
2019-05-03T12:22:26.221Z,3.00
2019-05-03T12:23:25.815Z,3.20
2019-05-03T12:24:26.701Z,2.10
2019-05-03T12:25:26.277Z,2.70
2019-05-03T12:26:25.888Z,1.90
2019-05-03T12:27:24.526Z,2.40
2019-05-03T12:28:25.714Z,2.20
2019-05-03T12:29:24.617Z,2.50
2019-05-03T12:30:27.148Z,2.50
2019-05-03T12:31:36.178Z,2.50
2019-05-03T12:32:25.100Z,2.20
2019-05-03T12:33:26.032Z,2.70
2019-05-03T12:34:25.596Z,3.20
2019-05-03T12:35:24.743Z,3.80
2019-05-03T12:36:24.790Z,4.10
2019-05-03T12:37:25.673Z,2.90
2019-05-03T12:38:25.564Z,3.90
2019-05-03T12:39:29.986Z,2.10
2019-05-03T12:40:25.527Z,2.80
2019-05-03T12:41:25.460Z,2.40
2019-05-03T12:42:25.595Z,3.80
2019-05-03T12:43:25.627Z,4.50
2019-05-03T12:44:25.138Z,3.60
2019-05-03T12:45:24.777Z,3.20
2019-05-03T12:46:26.055Z,2.90
2019-05-03T12:47:25.173Z,4.00
2019-05-03T12:48:24.626Z,2.70
2019-05-03T12:49:24.928Z,7.50
2019-05-03T12:50:25.162Z,2.10
2019-05-03T12:51:25.152Z,3.50
2019-05-03T12:52:26.316Z,4.90
2019-05-03T12:53:24.886Z,3.40
2019-05-03T12:54:24.539Z,3.60
2019-05-03T12:55:24.792Z,4.20
2019-05-03T12:56:31.806Z,5.90
2019-05-03T12:57:24.861Z,5.10
2019-05-03T12:58:25.336Z,1.70
2019-05-03T12:59:23.708Z,2.30
2019-05-03T13:00:25.088Z,3.40
2019-05-03T13:01:26.418Z,5.40
2019-05-03T13:02:24.835Z,3.20
2019-05-03T13:03:24.623Z,3.10
2019-05-03T13:04:24.819Z,5.00
2019-05-03T13:05:32.415Z,3.90
2019-05-03T13:43:24.866Z,4.30
2019-05-03T13:44:25.784Z,4.10
2019-05-03T13:45:24.783Z,4.70
2019-05-03T13:46:24.739Z,3.70
2019-05-03T13:47:24.537Z,3.00
2019-05-03T13:48:26.627Z,2.90
2019-05-03T13:49:26.411Z,3.40
2019-05-03T13:50:24.651Z,5.20
2019-05-03T13:51:25.497Z,4.30
2019-05-03T13:52:25.070Z,5.20
2019-05-03T13:53:31.236Z,3.10
2019-05-03T13:54:25.539Z,3.80
2019-05-03T13:55:24.597Z,4.30
2019-05-03T13:56:24.706Z,2.70
2019-05-03T13:57:24.589Z,3.80
2019-05-03T13:58:26.193Z,4.10
2019-05-03T13:59:25.301Z,3.00
2019-05-03T14:00:24.648Z,2.80
2019-05-03T14:01:30.722Z,4.40
2019-05-03T14:02:24.114Z,3.00
2019-05-03T14:03:26.282Z,6.80
2019-05-03T14:04:24.005Z,5.90
2019-05-03T14:05:24.528Z,2.60
2019-05-03T14:06:24.630Z,4.10
2019-05-03T14:07:23.920Z,3.40
2019-05-03T14:08:25.422Z,4.20
2019-05-03T14:09:25.176Z,3.50
2019-05-03T14:10:25.143Z,3.00
2019-05-03T14:11:25.385Z,6.10
2019-05-03T14:12:24.382Z,3.10
2019-05-03T14:13:23.748Z,4.30
2019-05-03T14:14:25.706Z,4.90
2019-05-03T14:15:25.468Z,4.10
2019-05-03T14:16:23.765Z,4.40
2019-05-03T14:17:25.282Z,4.10
2019-05-03T14:18:25.611Z,3.90
2019-05-03T14:19:25.215Z,4.50
2019-05-03T14:20:23.582Z,5.00
2019-05-03T14:21:24.476Z,4.00
2019-05-03T14:22:24.853Z,4.60
2019-05-03T14:23:25.207Z,4.20
2019-05-03T14:24:24.640Z,4.30
2019-05-03T14:25:24.710Z,3.20
2019-05-03T14:26:24.656Z,3.90
2019-05-03T14:27:25.310Z,3.60
2019-05-03T14:28:25.068Z,3.50
2019-05-03T14:29:25.210Z,3.40
2019-05-03T14:30:25.172Z,5.40
2019-05-03T14:31:25.030Z,5.60
2019-05-03T14:32:26.663Z,2.80
2019-05-03T14:33:24.834Z,6.00
2019-05-03T14:34:25.719Z,4.30
2019-05-03T14:35:24.972Z,3.60
2019-05-03T14:36:25.124Z,2.70
2019-05-03T14:37:23.039Z,5.50
2019-05-03T14:38:25.272Z,3.80